Time;durP1;ratioP1;P1;durP2;ratioP2;P2;SDS_P1;SDS_P2;PMS_P1;PMS_P2;Temp;Humidity;BMP_temperature;BMP_pressure;BME280_temperature;BME280_humidity;BME280_pressure;Samples;Min_cycle;Max_cycle;Signal;HPM_P1;HPM_P2
2021/09/21 00:00:13;;;;;;;1.55;1.23;;;12.90;90.40;;;;;;10386746;28;20079;-90
2021/09/21 00:05:15;;;;;;;2.95;1.35;;;12.80;90.10;;;;;;10353199;28;20511;-91
2021/09/21 00:10:17;;;;;;;2.40;1.45;;;12.70;90.30;;;;;;10381677;28;20412;-91
2021/09/21 00:15:20;;;;;;;2.75;1.30;;;12.70;90.60;;;;;;10378188;28;20061;-91
2021/09/21 00:20:22;;;;;;;2.67;1.60;;;12.60;91.10;;;;;;10377167;28;20116;-91
2021/09/21 00:25:24;;;;;;;4.55;1.38;;;12.50;91.10;;;;;;10408222;28;20080;-91
2021/09/21 00:30:26;;;;;;;2.70;1.40;;;12.60;91.20;;;;;;10366326;28;20047;-91
2021/09/21 00:35:29;;;;;;;3.00;1.70;;;12.60;91.10;;;;;;10354899;28;20472;-91
2021/09/21 00:40:31;;;;;;;4.50;1.20;;;12.60;91.50;;;;;;10393784;28;20061;-91
2021/09/21 00:45:34;;;;;;;2.13;1.23;;;12.50;91.60;;;;;;10386491;28;20049;-90
2021/09/21 00:50:37;;;;;;;3.15;1.10;;;12.50;91.50;;;;;;10385157;28;20563;-90
2021/09/21 00:55:39;;;;;;;1.92;1.15;;;12.50;91.40;;;;;;10387572;28;20053;-90
2021/09/21 01:00:40;;;;;;;1.70;1.27;;;12.50;91.00;;;;;;10382975;28;20080;-90
2021/09/21 01:05:42;;;;;;;3.53;1.52;;;12.50;90.70;;;;;;10393392;28;20100;-91
2021/09/21 01:10:47;;;;;;;3.80;1.40;;;12.70;91.50;;;;;;10368018;28;20057;-91
2021/09/21 01:15:49;;;;;;;2.67;1.30;;;12.70;90.60;;;;;;10374452;28;20057;-91
2021/09/21 01:20:51;;;;;;;2.42;1.33;;;12.70;90.40;;;;;;10421138;28;20099;-90
2021/09/21 01:25:55;;;;;;;1.65;1.27;;;12.70;89.90;;;;;;10405478;28;20048;-90
2021/09/21 01:30:57;;;;;;;2.85;1.50;;;12.70;90.00;;;;;;10447969;28;20049;-90
2021/09/21 01:35:59;;;;;;;2.33;1.40;;;12.60;90.20;;;;;;10425896;28;20385;-90
2021/09/21 01:41:01;;;;;;;2.83;1.60;;;12.60;90.30;;;;;;10446251;28;20057;-91
2021/09/21 01:46:02;;;;;;;3.70;1.40;;;12.60;90.50;;;;;;10404533;28;20053;-90
2021/09/21 01:51:10;;;;;;;3.42;1.63;;;12.60;90.70;;;;;;10433684;28;20132;-91
2021/09/21 02:01:32;;;;;;;2.75;1.90;;;12.60;90.60;;;;;;10442258;28;20049;-91
2021/09/21 02:06:39;;;;;;;2.45;1.63;;;12.60;91.00;;;;;;10415501;28;20511;-91
2021/09/21 02:11:46;;;;;;;;;;;12.60;90.80;;;;;;10398212;28;20088;-91
2021/09/21 02:16:57;;;;;;;1.60;1.17;;;12.60;90.90;;;;;;10413425;28;19920;-92
2021/09/21 02:22:00;;;;;;;2.58;1.20;;;12.50;91.10;;;;;;10420754;28;20061;-92
2021/09/21 02:27:02;;;;;;;3.70;1.73;;;12.60;91.20;;;;;;10435020;28;20515;-91
2021/09/21 02:32:05;;;;;;;3.28;1.40;;;12.60;91.50;;;;;;10419547;28;20051;-91
2021/09/21 02:37:07;;;;;;;2.45;1.40;;;12.50;91.20;;;;;;10406239;28;20053;-91
2021/09/21 02:42:09;;;;;;;2.30;1.50;;;12.40;91.10;;;;;;10403806;28;20052;-92
2021/09/21 02:47:11;;;;;;;3.22;1.50;;;12.40;91.20;;;;;;10409224;28;20124;-92
2021/09/21 02:52:13;;;;;;;1.73;1.10;;;12.30;91.10;;;;;;10417628;28;20045;-91
2021/09/21 02:57:15;;;;;;;1.52;1.00;;;12.20;91.60;;;;;;10400254;28;20070;-91
2021/09/21 03:02:17;;;;;;;3.45;1.58;;;12.10;91.40;;;;;;10406361;28;20514;-91
2021/09/21 03:07:28;;;;;;;1.90;1.25;;;12.00;91.30;;;;;;10418485;28;20573;-91
2021/09/21 03:12:55;;;;;;;2.55;1.20;;;12.00;91.00;;;;;;10399475;28;20076;-91
2021/09/21 03:17:51;;;;;;;4.03;1.52;;;11.90;90.40;;;;;;10416165;28;20052;-91
2021/09/21 03:22:53;;;;;;;2.45;1.40;;;11.90;90.40;;;;;;10419403;28;20067;-91
2021/09/21 03:27:58;;;;;;;3.55;1.08;;;11.80;90.70;;;;;;10424631;28;20053;-91
2021/09/21 03:32:59;;;;;;;2.45;1.45;;;11.60;90.80;;;;;;10452823;28;20137;-91
2021/09/21 03:38:01;;;;;;;4.60;1.50;;;11.40;91.20;;;;;;10423072;28;20057;-91
2021/09/21 03:43:04;;;;;;;2.90;1.73;;;11.30;91.70;;;;;;10414188;28;20060;-91
2021/09/21 03:48:09;;;;;;;4.28;1.70;;;11.10;92.00;;;;;;10438331;28;20079;-91
2021/09/21 03:53:11;;;;;;;3.53;1.65;;;11.10;92.30;;;;;;10400383;28;20063;-91
2021/09/21 03:58:12;;;;;;;3.38;1.70;;;10.80;92.50;;;;;;10432131;28;20087;-91
2021/09/21 04:03:14;;;;;;;3.30;1.63;;;10.70;93.10;;;;;;10405243;28;20422;-91
2021/09/21 04:08:16;;;;;;;2.28;1.40;;;10.50;93.30;;;;;;10413879;28;20049;-91
2021/09/21 04:13:18;;;;;;;3.15;1.55;;;10.30;93.50;;;;;;10408635;28;20055;-90
2021/09/21 04:18:19;;;;;;;7.82;1.73;;;10.30;93.90;;;;;;10403489;28;20088;-91
2021/09/21 04:23:21;;;;;;;3.65;1.67;;;10.20;94.20;;;;;;10434907;28;20061;-92
2021/09/21 04:28:24;;;;;;;4.85;1.92;;;10.10;94.50;;;;;;10423553;28;20510;-92
2021/09/21 04:33:35;;;;;;;5.53;2.00;;;10.00;94.30;;;;;;10401266;28;20409;-90
2021/09/21 04:38:38;;;;;;;4.38;2.30;;;9.90;95.00;;;;;;10410454;28;20048;-93
2021/09/21 04:43:40;;;;;;;3.88;2.30;;;9.70;95.00;;;;;;10431444;28;20057;-92
2021/09/21 04:48:42;;;;;;;5.15;1.88;;;9.60;95.30;;;;;;10444818;28;20128;-94
2021/09/21 04:53:44;;;;;;;4.63;2.20;;;9.60;95.50;;;;;;10438263;28;20469;-93
2021/09/21 04:58:46;;;;;;;5.05;2.05;;;9.50;95.80;;;;;;10405630;28;20116;-93
2021/09/21 05:03:49;;;;;;;4.93;1.98;;;9.40;95.70;;;;;;10402095;28;20060;-93
2021/09/21 05:08:51;;;;;;;3.17;1.55;;;9.40;95.40;;;;;;10428072;28;20072;-94
2021/09/21 05:13:53;;;;;;;3.42;1.85;;;9.40;95.40;;;;;;10437899;28;20147;-92
2021/09/21 05:18:55;;;;;;;3.47;1.40;;;9.40;95.00;;;;;;10395107;28;20052;-93
2021/09/21 05:23:57;;;;;;;5.22;1.42;;;9.40;94.60;;;;;;10407833;28;20057;-93
2021/09/21 05:29:07;;;;;;;3.95;1.70;;;9.40;94.60;;;;;;10376009;28;20091;-93
2021/09/21 05:34:09;;;;;;;2.50;1.25;;;9.40;95.10;;;;;;10391776;28;20092;-92
2021/09/21 05:39:14;;;;;;;4.00;2.25;;;9.40;95.00;;;;;;10419324;28;20059;-93
2021/09/21 05:44:16;;;;;;;3.42;2.08;;;9.30;95.40;;;;;;10277762;28;20061;-94
2021/09/21 05:49:18;;;;;;;3.85;1.90;;;9.40;95.70;;;;;;10385833;28;20110;-92
2021/09/21 05:54:20;;;;;;;4.15;2.50;;;9.40;96.10;;;;;;10410974;28;20064;-91
2021/09/21 05:59:22;;;;;;;6.35;2.28;;;9.30;96.20;;;;;;10416586;28;20123;-92
2021/09/21 06:04:23;;;;;;;8.00;1.75;;;9.30;96.20;;;;;;10422840;28;20064;-91
2021/09/21 06:09:25;;;;;;;6.65;2.30;;;9.30;96.30;;;;;;10405978;28;20056;-92
2021/09/21 06:14:27;;;;;;;4.03;1.88;;;9.30;96.50;;;;;;10398775;28;20415;-92
2021/09/21 06:19:29;;;;;;;3.75;1.92;;;9.30;96.30;;;;;;10366546;28;20059;-92
2021/09/21 06:24:31;;;;;;;4.18;1.83;;;9.40;97.10;;;;;;10380307;28;22267;-91
2021/09/21 06:29:32;;;;;;;5.63;1.83;;;9.50;96.40;;;;;;10384892;28;20068;-91
2021/09/21 06:34:34;;;;;;;2.10;1.90;;;9.70;96.30;;;;;;10379707;28;20465;-92
2021/09/21 06:39:37;;;;;;;3.13;1.85;;;9.80;96.20;;;;;;10386038;28;20053;-92
2021/09/21 06:44:57;;;;;;;3.42;1.75;;;10.00;96.30;;;;;;10394408;28;20047;-92
2021/09/21 06:50:03;;;;;;;3.85;1.85;;;10.10;95.90;;;;;;10402893;28;20061;-92
2021/09/21 06:55:05;;;;;;;3.83;1.90;;;10.30;96.10;;;;;;10383640;28;20053;-91
2021/09/21 07:00:10;;;;;;;4.50;1.98;;;10.40;96.30;;;;;;10381913;28;20050;-91
2021/09/21 07:05:12;;;;;;;5.63;2.08;;;10.70;95.90;;;;;;10380732;28;20064;-91
2021/09/21 07:10:15;;;;;;;1.92;1.33;;;10.90;95.50;;;;;;10403028;28;20531;-91
2021/09/21 07:15:28;;;;;;;4.30;1.90;;;11.10;95.00;;;;;;10296441;28;20057;-92
2021/09/21 07:20:31;;;;;;;4.70;1.70;;;11.30;94.60;;;;;;10425208;28;20140;-92
2021/09/21 07:25:33;;;;;;;6.57;1.75;;;11.50;93.90;;;;;;10427336;28;20096;-92
2021/09/21 07:30:38;;;;;;;6.40;1.27;;;11.60;93.40;;;;;;10404672;28;20112;-92
2021/09/21 07:35:40;;;;;;;2.38;1.35;;;11.70;92.90;;;;;;10405622;28;20107;-91
2021/09/21 07:40:58;;;;;;;2.33;0.82;;;11.80;92.70;;;;;;10436073;28;20045;-95
2021/09/21 07:46:17;;;;;;;2.45;1.30;;;11.90;92.60;;;;;;10170738;28;20098;-95
2021/09/21 07:51:31;;;;;;;4.03;1.48;;;12.10;92.80;;;;;;10154857;28;20064;-95
2021/09/21 07:56:53;;;;;;;2.25;1.30;;;12.20;92.60;;;;;;10076028;28;20137;-94
2021/09/21 08:02:28;;;;;;;3.45;1.80;;;12.30;93.10;;;;;;10070368;28;20049;-94
2021/09/21 08:07:57;;;;;;;4.45;1.35;;;12.50;92.90;;;;;;10112058;28;20042;-94
2021/09/21 08:13:10;;;;;;;2.97;1.80;;;12.60;93.00;;;;;;10226598;28;20087;-96
2021/09/21 08:18:24;;;;;;;3.97;1.73;;;12.80;93.10;;;;;;10028714;28;20059;-95
2021/09/21 08:23:56;;;;;;;2.03;1.33;;;12.90;92.40;;;;;;10081863;28;20051;-94
2021/09/21 08:29:28;;;;;;;3.03;1.63;;;13.00;92.70;;;;;;9956148;28;20050;-94
2021/09/21 08:34:43;;;;;;;4.18;1.67;;;13.20;92.30;;;;;;10159287;28;20058;-95
2021/09/21 08:39:54;;;;;;;2.90;1.40;;;13.30;92.10;;;;;;10088535;28;20122;-94
2021/09/21 08:46:06;;;;;;;4.82;1.95;;;13.50;92.60;;;;;;10147341;28;20046;-94
2021/09/21 08:51:37;;;;;;;3.03;1.23;;;13.50;92.00;;;;;;9923375;28;20047;-95
2021/09/21 08:57:40;;;;;;;5.95;1.50;;;13.70;91.20;;;;;;10043627;28;20057;-96
2021/09/21 09:03:09;;;;;;;6.13;1.88;;;13.70;91.30;;;;;;9792108;28;20052;-95
2021/09/21 09:08:41;;;;;;;5.00;1.15;;;14.00;92.30;;;;;;9841207;28;20062;-94
2021/09/21 09:14:25;;;;;;;4.47;1.20;;;14.30;91.20;;;;;;10028843;28;20450;-95
2021/09/21 09:19:42;;;;;;;5.95;1.20;;;14.30;91.10;;;;;;10033920;28;20055;-94
2021/09/21 09:25:07;;;;;;;2.17;1.00;;;14.50;91.50;;;;;;10012061;28;20047;-95
2021/09/21 09:30:38;;;;;;;5.47;1.30;;;14.50;90.50;;;;;;10042318;28;20037;-95
2021/09/21 09:36:17;;;;;;;4.07;1.33;;;14.60;89.70;;;;;;10165557;28;20256;-95
2021/09/21 09:42:26;;;;;;;2.88;1.10;;;14.70;89.90;;;;;;10113206;28;20046;-94
2021/09/21 09:48:04;;;;;;;4.18;0.77;;;14.90;90.00;;;;;;9931719;28;20095;-95
2021/09/21 09:53:51;;;;;;;2.90;1.10;;;15.00;87.80;;;;;;9912905;28;20064;-95
2021/09/21 09:59:24;;;;;;;3.30;1.27;;;15.20;87.30;;;;;;9881327;28;20050;-95
2021/09/21 10:04:59;;;;;;;4.90;1.10;;;15.30;86.60;;;;;;10178538;28;20045;-94
2021/09/21 10:11:29;;;;;;;;;;;;;;;;;;;;;
2021/09/21 10:17:07;;;;;;;4.25;1.00;;;15.90;85.40;;;;;;10053284;28;20059;-95
2021/09/21 10:23:01;;;;;;;3.70;0.95;;;16.30;86.10;;;;;;10133862;28;20053;-95
2021/09/21 10:29:10;;;;;;;3.72;1.20;;;16.60;83.80;;;;;;9942015;28;20048;-95
2021/09/21 10:35:20;;;;;;;6.97;1.50;;;17.10;84.50;;;;;;9891076;28;20128;-94
2021/09/21 10:40:49;;;;;;;3.17;1.08;;;17.20;81.80;;;;;;9864944;28;20063;-95
2021/09/21 10:46:36;;;;;;;3.55;1.35;;;17.20;81.10;;;;;;10068681;28;20065;-96
2021/09/21 10:53:21;;;;;;;7.45;1.45;;;17.30;82.20;;;;;;10125738;28;20080;-95
2021/09/21 10:59:14;;;;;;;3.08;0.98;;;17.40;81.40;;;;;;10103478;28;20473;-95
2021/09/21 11:05:00;;;;;;;2.67;1.10;;;17.40;78.20;;;;;;10030886;28;20081;-95
2021/09/21 11:10:49;;;;;;;2.65;1.08;;;17.70;79.70;;;;;;10211443;28;20043;-95
2021/09/21 11:16:16;;;;;;;3.40;1.10;;;17.80;77.00;;;;;;10077476;23;20050;-63
2021/09/21 11:21:17;;;;;;;6.28;1.00;;;18.00;76.10;;;;;;10434558;28;20060;-63
2021/09/21 11:26:19;;;;;;;5.40;0.90;;;18.20;76.70;;;;;;10423214;28;20048;-62
2021/09/21 11:31:21;;;;;;;4.00;0.93;;;18.50;74.40;;;;;;10427702;28;20142;-63
2021/09/21 11:36:23;;;;;;;0.95;0.50;;;18.90;72.30;;;;;;10407980;28;20097;-63
2021/09/21 11:41:24;;;;;;;5.70;1.10;;;19.10;65.10;;;;;;10423430;28;23433;-63
2021/09/21 11:46:30;;;;;;;4.65;1.20;;;18.80;69.00;;;;;;10427288;28;20049;-62
2021/09/21 11:51:35;;;;;;;3.15;1.63;;;18.50;70.40;;;;;;10434301;28;20056;-63
2021/09/21 11:56:41;;;;;;;3.42;0.95;;;18.20;71.40;;;;;;10427919;28;20104;-62
2021/09/21 12:01:53;;;;;;;;;;;18.10;73.50;;;;;;10429303;28;20048;-63
2021/09/21 12:06:55;;;;;;;3.75;0.80;;;18.00;73.70;;;;;;10432137;28;19960;-63
2021/09/21 12:11:57;;;;;;;1.20;0.50;;;17.80;74.00;;;;;;10423049;28;20061;-63
2021/09/21 12:17:02;;;;;;;5.07;0.77;;;17.80;70.80;;;;;;10424156;28;20453;-63
2021/09/21 12:22:04;;;;;;;2.70;0.50;;;17.70;71.50;;;;;;10421879;28;20499;-63
2021/09/21 12:27:06;;;;;;;1.50;0.60;;;17.60;73.30;;;;;;10424270;28;20060;-63
2021/09/21 12:32:08;;;;;;;1.00;0.70;;;17.50;72.80;;;;;;10422027;28;20048;-62
2021/09/21 12:37:10;;;;;;;1.42;0.60;;;17.60;73.60;;;;;;10417392;28;20080;-63
2021/09/21 12:42:12;;;;;;;0.95;0.55;;;17.70;70.00;;;;;;10421824;28;20061;-63
2021/09/21 12:47:16;;;;;;;4.70;1.40;;;17.90;68.70;;;;;;10416051;28;20484;-63
2021/09/21 12:52:27;;;;;;;2.40;0.57;;;17.90;70.00;;;;;;10418734;28;20060;-63
2021/09/21 12:57:29;;;;;;;6.22;0.60;;;18.10;70.40;;;;;;10410924;28;20094;-63
2021/09/21 13:02:31;;;;;;;1.10;0.50;;;18.00;69.30;;;;;;10411780;28;20073;-63
2021/09/21 13:07:33;;;;;;;3.50;0.60;;;18.30;70.70;;;;;;10415810;28;20057;-63
2021/09/21 13:12:35;;;;;;;1.50;0.77;;;18.50;70.10;;;;;;10413276;28;20048;-63
2021/09/21 13:17:36;;;;;;;3.10;0.70;;;18.40;70.70;;;;;;10417985;28;20506;-63
2021/09/21 13:22:38;;;;;;;3.17;0.80;;;18.50;71.10;;;;;;10420087;28;20088;-63
2021/09/21 13:27:40;;;;;;;1.30;0.68;;;19.00;70.80;;;;;;10419945;28;20400;-63
2021/09/21 13:32:42;;;;;;;1.23;0.55;;;19.10;70.50;;;;;;10420247;28;20106;-62
2021/09/21 13:37:45;;;;;;;3.60;0.60;;;19.40;67.90;;;;;;10417711;28;20057;-63
2021/09/21 13:42:56;;;;;;;3.05;0.90;;;19.80;67.50;;;;;;10411247;28;20048;-63
2021/09/21 13:47:59;;;;;;;1.90;0.63;;;20.00;67.80;;;;;;10417928;28;20099;-63
2021/09/21 13:53:01;;;;;;;4.00;0.52;;;19.60;66.80;;;;;;10417010;28;20084;-61
2021/09/21 13:58:03;;;;;;;3.28;0.75;;;19.40;67.30;;;;;;10398618;28;20087;-61
2021/09/21 14:03:05;;;;;;;1.63;0.80;;;19.40;67.00;;;;;;10415526;28;20119;-62
2021/09/21 14:08:07;;;;;;;3.67;0.68;;;19.40;65.80;;;;;;10416947;28;20057;-63
2021/09/21 14:13:09;;;;;;;5.53;1.20;;;19.50;68.90;;;;;;10415453;28;20052;-63
2021/09/21 14:18:12;;;;;;;1.13;0.63;;;19.30;68.70;;;;;;10421265;28;20155;-62
2021/09/21 14:23:14;;;;;;;3.47;0.50;;;19.10;67.70;;;;;;10417957;28;20102;-62
2021/09/21 14:28:19;;;;;;;1.17;0.50;;;18.90;68.50;;;;;;10418297;28;20081;-62
2021/09/21 14:33:21;;;;;;;2.42;0.80;;;19.00;69.10;;;;;;10415618;28;20038;-62
2021/09/21 14:38:23;;;;;;;2.45;0.65;;;19.10;70.50;;;;;;10411167;28;20141;-63
2021/09/21 14:43:25;;;;;;;2.80;0.50;;;18.90;71.00;;;;;;10407944;28;20057;-62
2021/09/21 14:48:27;;;;;;;1.17;0.50;;;19.00;68.70;;;;;;10416295;28;20053;-62
2021/09/21 14:53:31;;;;;;;2.70;0.77;;;19.00;68.60;;;;;;10412654;28;20434;-63
2021/09/21 14:58:33;;;;;;;4.20;0.60;;;18.80;67.30;;;;;;10414520;28;20041;-63
2021/09/21 15:03:34;;;;;;;2.78;0.68;;;18.70;67.60;;;;;;10412911;28;20073;-63
2021/09/21 15:08:38;;;;;;;1.17;0.57;;;18.60;65.50;;;;;;10412638;28;20458;-62
2021/09/21 15:13:40;;;;;;;0.93;0.40;;;18.60;66.60;;;;;;10408722;28;20069;-62
2021/09/21 15:18:45;;;;;;;1.63;0.60;;;18.50;66.80;;;;;;10408573;28;20581;-65
2021/09/21 15:23:46;;;;;;;1.38;0.50;;;18.50;68.80;;;;;;10419913;28;20049;-65
2021/09/21 15:28:48;;;;;;;0.80;0.50;;;18.40;69.50;;;;;;10427697;28;20099;-65
2021/09/21 15:33:50;;;;;;;1.35;0.50;;;18.30;68.30;;;;;;10418517;28;20754;-64
2021/09/21 15:38:52;;;;;;;1.65;0.60;;;18.30;68.70;;;;;;10416206;28;20084;-65
2021/09/21 15:43:53;;;;;;;2.50;0.60;;;18.10;70.60;;;;;;10422395;28;20076;-64
2021/09/21 15:48:55;;;;;;;2.05;0.70;;;18.00;71.30;;;;;;10420832;28;20045;-62
2021/09/21 15:53:59;;;;;;;3.95;1.27;;;17.90;70.40;;;;;;10420459;28;20463;-62
2021/09/21 15:59:01;;;;;;;6.25;1.42;;;17.70;72.90;;;;;;10424947;28;20159;-62
2021/09/21 16:04:04;;;;;;;2.08;0.93;;;17.60;73.00;;;;;;10417430;28;20053;-63
2021/09/21 16:09:06;;;;;;;1.88;0.50;;;17.50;72.70;;;;;;10421719;28;20142;-62
2021/09/21 16:14:08;;;;;;;2.50;0.70;;;17.50;74.00;;;;;;10420607;28;20068;-62
2021/09/21 16:19:10;;;;;;;1.70;0.60;;;17.30;74.00;;;;;;10424041;28;20041;-62
2021/09/21 16:24:12;;;;;;;2.45;0.60;;;17.20;74.40;;;;;;10413378;28;20085;-62
2021/09/21 16:29:16;;;;;;;1.00;0.50;;;17.20;76.20;;;;;;10418877;28;20069;-62
2021/09/21 16:34:18;;;;;;;3.08;0.65;;;17.10;76.50;;;;;;10416566;28;20142;-62
2021/09/21 16:39:21;;;;;;;3.70;0.70;;;16.90;76.40;;;;;;10421804;28;20454;-62
2021/09/21 16:44:22;;;;;;;3.05;0.95;;;16.80;77.10;;;;;;10420561;28;20237;-62
2021/09/21 16:49:26;;;;;;;1.60;0.93;;;16.70;77.90;;;;;;10418684;28;20049;-62
2021/09/21 16:54:27;;;;;;;5.72;1.00;;;16.50;79.00;;;;;;10412769;28;20081;-62
2021/09/21 16:59:29;;;;;;;5.20;1.08;;;16.30;80.20;;;;;;10414040;28;20080;-62
2021/09/21 17:04:31;;;;;;;2.38;1.00;;;16.20;83.90;;;;;;10418049;28;20084;-62
2021/09/21 17:09:33;;;;;;;4.53;1.10;;;15.90;82.80;;;;;;10412235;28;20081;-62
2021/09/21 17:14:34;;;;;;;2.25;0.70;;;15.80;83.10;;;;;;10415486;28;20198;-62
2021/09/21 17:19:36;;;;;;;3.33;0.90;;;15.70;84.70;;;;;;10415249;28;20132;-63
2021/09/21 17:24:38;;;;;;;4.82;1.65;;;15.50;86.70;;;;;;10414495;28;20167;-63
2021/09/21 17:29:39;;;;;;;4.47;0.80;;;15.40;89.40;;;;;;10419371;28;20053;-62
2021/09/21 17:34:41;;;;;;;2.05;0.90;;;15.20;90.40;;;;;;10420336;28;20064;-63
2021/09/21 17:39:43;;;;;;;2.10;1.65;;;15.00;90.60;;;;;;10417648;28;20080;-63
2021/09/21 17:44:45;;;;;;;3.05;0.90;;;14.90;90.60;;;;;;10397559;28;20101;-63
2021/09/21 17:49:46;;;;;;;3.40;1.13;;;14.80;90.80;;;;;;10414595;28;20088;-64
2021/09/21 17:54:50;;;;;;;4.13;1.20;;;14.60;90.60;;;;;;10418578;28;20056;-62
2021/09/21 17:59:52;;;;;;;3.17;1.00;;;14.50;91.10;;;;;;10414471;28;20107;-58
2021/09/21 18:04:53;;;;;;;4.07;1.08;;;14.40;91.70;;;;;;10418450;28;20049;-58
2021/09/21 18:09:55;;;;;;;2.38;1.00;;;14.20;92.90;;;;;;10401503;28;20065;-57
2021/09/21 18:14:57;;;;;;;7.25;2.33;;;14.10;93.40;;;;;;10399281;28;20064;-60
2021/09/21 18:20:25;;;;;;;5.70;1.88;;;14.00;94.40;;;;;;10416221;28;20049;-60
2021/09/21 18:25:27;;;;;;;6.55;1.63;;;13.80;94.70;;;;;;10369037;28;20135;-59
2021/09/21 18:30:28;;;;;;;4.10;1.33;;;13.60;94.50;;;;;;10411250;28;20080;-59
2021/09/21 18:35:34;;;;;;;5.10;1.10;;;13.50;95.00;;;;;;10417784;28;20052;-59
2021/09/21 18:40:37;;;;;;;4.95;2.22;;;13.40;95.30;;;;;;10414495;28;20106;-57
2021/09/21 18:45:40;;;;;;;4.85;1.45;;;13.20;95.90;;;;;;10416912;28;20384;-58
2021/09/21 18:50:42;;;;;;;5.60;1.80;;;13.10;96.60;;;;;;10411165;28;20088;-58
2021/09/21 18:55:44;;;;;;;4.68;1.52;;;13.00;96.80;;;;;;10417339;28;20146;-58
2021/09/21 19:00:46;;;;;;;2.85;1.25;;;12.90;97.30;;;;;;10411446;28;20076;-57
2021/09/21 19:05:48;;;;;;;5.65;1.42;;;12.80;97.80;;;;;;10415916;28;20053;-57
2021/09/21 19:10:50;;;;;;;7.68;2.03;;;12.60;98.00;;;;;;10408300;28;20048;-58
2021/09/21 19:15:53;;;;;;;4.57;1.52;;;12.50;98.40;;;;;;10413994;28;20134;-58
2021/09/21 19:20:55;;;;;;;4.20;1.65;;;12.40;98.50;;;;;;10403916;28;20080;-58
2021/09/21 19:25:56;;;;;;;4.18;2.05;;;12.30;98.60;;;;;;10398519;28;20054;-59
2021/09/21 19:30:58;;;;;;;3.95;2.00;;;12.20;99.00;;;;;;10415044;28;20146;-58
2021/09/21 19:36:00;;;;;;;4.68;2.20;;;12.10;99.20;;;;;;10398690;28;20107;-58
2021/09/21 19:41:02;;;;;;;3.97;2.40;;;12.10;99.60;;;;;;10408224;28;20496;-58
2021/09/21 19:46:04;;;;;;;6.53;2.17;;;12.00;99.90;;;;;;10412848;28;20450;-57
2021/09/21 19:51:06;;;;;;;5.15;1.92;;;12.00;99.90;;;;;;10405978;28;20049;-58
2021/09/21 19:56:08;;;;;;;3.65;1.92;;;11.90;99.90;;;;;;10414819;28;20057;-58
2021/09/21 20:01:10;;;;;;;3.40;1.83;;;11.80;99.90;;;;;;10413740;28;20107;-58
2021/09/21 20:06:12;;;;;;;6.43;2.20;;;11.70;99.90;;;;;;10415093;28;24115;-58
2021/09/21 20:11:14;;;;;;;3.75;2.13;;;11.60;99.90;;;;;;10423786;28;20056;-58
2021/09/21 20:16:16;;;;;;;2.47;1.80;;;11.60;99.90;;;;;;10421635;28;20107;-57
2021/09/21 20:21:18;;;;;;;5.13;1.88;;;11.60;99.90;;;;;;10419701;28;20055;-58
2021/09/21 20:26:20;;;;;;;6.85;2.10;;;11.50;99.90;;;;;;10416706;28;20056;-58
2021/09/21 20:31:25;;;;;;;5.75;1.98;;;11.50;99.90;;;;;;10417223;28;20076;-59
2021/09/21 20:36:27;;;;;;;3.60;2.03;;;11.40;99.90;;;;;;10418835;28;20575;-58
2021/09/21 20:41:29;;;;;;;3.90;1.80;;;11.30;99.90;;;;;;10417060;28;20081;-57
2021/09/21 20:46:31;;;;;;;4.85;1.85;;;11.30;99.90;;;;;;10415904;28;20128;-57
2021/09/21 20:51:33;;;;;;;4.10;1.80;;;11.20;99.90;;;;;;10414379;28;20156;-58
2021/09/21 20:56:34;;;;;;;4.32;2.63;;;11.10;99.90;;;;;;10418351;28;20079;-60
2021/09/21 21:01:36;;;;;;;3.13;1.85;;;11.10;99.90;;;;;;10422842;28;20487;-57
2021/09/21 21:06:38;;;;;;;9.38;2.35;;;11.10;99.90;;;;;;10399219;28;20074;-58
2021/09/21 21:11:41;;;;;;;2.08;1.42;;;11.10;99.90;;;;;;10415744;28;20110;-58
2021/09/21 21:16:43;;;;;;;3.60;2.17;;;11.00;99.90;;;;;;10418626;28;20115;-59
2021/09/21 21:21:45;;;;;;;3.60;2.15;;;11.00;99.90;;;;;;10414464;28;20057;-61
2021/09/21 21:26:46;;;;;;;5.20;2.80;;;11.00;99.90;;;;;;10416081;28;20196;-59
2021/09/21 21:31:48;;;;;;;4.28;2.00;;;10.80;99.90;;;;;;10418199;28;20136;-60
2021/09/21 21:36:50;;;;;;;4.05;2.03;;;10.80;99.90;;;;;;10416694;28;20073;-60
2021/09/21 21:41:51;;;;;;;7.65;2.20;;;10.70;99.90;;;;;;10409026;28;20443;-58
2021/09/21 21:46:53;;;;;;;6.38;2.50;;;10.70;99.90;;;;;;10414150;28;20152;-60
2021/09/21 21:51:55;;;;;;;4.80;2.33;;;10.70;99.90;;;;;;10414428;28;20099;-59
2021/09/21 21:56:56;;;;;;;4.60;2.20;;;10.60;99.90;;;;;;10412126;28;20081;-56
2021/09/21 22:01:59;;;;;;;2.90;1.75;;;10.50;99.90;;;;;;10412542;28;20103;-58
2021/09/21 22:07:01;;;;;;;3.40;2.03;;;10.50;99.90;;;;;;10414033;28;20085;-57
2021/09/21 22:12:03;;;;;;;4.90;2.17;;;10.40;99.90;;;;;;10412568;28;20052;-59
2021/09/21 22:17:05;;;;;;;4.65;2.47;;;10.40;99.90;;;;;;10415920;28;20056;-58
2021/09/21 22:22:07;;;;;;;5.20;2.85;;;10.40;99.90;;;;;;10412504;28;20111;-59
2021/09/21 22:27:09;;;;;;;4.13;2.17;;;10.30;99.90;;;;;;10414301;28;20479;-56
2021/09/21 22:32:10;;;;;;;3.22;1.77;;;10.30;99.90;;;;;;10412504;28;20053;-57
2021/09/21 22:37:12;;;;;;;5.22;2.42;;;10.30;99.90;;;;;;10418098;28;20111;-59
2021/09/21 22:42:14;;;;;;;4.43;2.22;;;10.20;99.90;;;;;;10416512;28;20158;-57
2021/09/21 22:47:16;;;;;;;6.30;2.10;;;10.20;99.90;;;;;;10414354;28;20134;-59
2021/09/21 22:52:17;;;;;;;5.75;2.15;;;10.30;99.90;;;;;;10409502;28;20096;-60
2021/09/21 22:57:19;;;;;;;4.60;2.20;;;10.20;99.90;;;;;;10416237;28;20118;-60
2021/09/21 23:02:21;;;;;;;4.28;2.22;;;10.10;99.90;;;;;;10399100;28;20084;-59
2021/09/21 23:07:24;;;;;;;5.13;2.03;;;10.00;99.90;;;;;;10412480;28;20087;-59
2021/09/21 23:12:25;;;;;;;4.38;2.35;;;10.00;99.90;;;;;;10413837;28;20528;-57
2021/09/21 23:17:27;;;;;;;5.55;2.25;;;9.90;99.90;;;;;;10404525;28;20052;-59
2021/09/21 23:22:29;;;;;;;5.35;2.38;;;10.00;99.90;;;;;;10415650;28;20060;-59
2021/09/21 23:27:30;;;;;;;4.50;2.40;;;9.90;99.90;;;;;;10408386;28;20542;-58
2021/09/21 23:32:33;;;;;;;4.65;2.10;;;9.80;99.90;;;;;;10403332;28;20132;-58
2021/09/21 23:37:34;;;;;;;6.10;2.22;;;9.80;99.90;;;;;;10409332;28;20052;-58
2021/09/21 23:42:36;;;;;;;6.40;3.00;;;9.80;99.90;;;;;;10398016;28;20076;-58
2021/09/21 23:47:38;;;;;;;7.75;2.63;;;9.70;99.90;;;;;;10425358;28;20053;-60
2021/09/21 23:52:41;;;;;;;9.65;3.30;;;9.70;99.90;;;;;;10417832;28;20419;-59
2021/09/21 23:57:42;;;;;;;5.65;2.15;;;9.70;99.90;;;;;;10403724;28;20076;-58
